Terminal Aerodrome Forecast
Issued by NWS

Home | Current Version | Previous Version | Text Only | Print | Product List | Glossary On
Versions: 1 2 3 4 5 6 7 8 9 10 11 12 13
000
FTAK31 PAJN 270500
TAFAWG
TAF
PAWG 270520Z 2706/2806 11008KT P6SM -RA FEW002 BKN025 OVC035
     FM270800 VRB06KT 6SM -SHRA BR SCT008 OVC015
     FM271100 VRB06KT P6SM VCSH SCT008 OVC020
     FM271400 27006KT P6SM VCSH FEW010 OVC030
     FM271900 34005KT P6SM SCT020 BKN050
     FM272200 34005KT P6SM SCT050
      AMD LTD TO CLD VIS AND WIND 2706/2715=

USA.gov is the U.S. government's official web portal to all federal, state and local government web resources and services.